x

8419317 - Wells, Me (welm1) Weather Station

10:30 - Tue 17th Jan 2017 All times are EST. -5 hours from GMT.

  • Wind
    17mph, 23mph gusts
  • Sea Temp 39°f
  • Aire Temp 37°f
  • Sea Pressure 1021.3mb
  • 8419317 - Wells, Me
  • 8419317 - Wells, Me

More Historic Weather Station data

Upgrade to MSW Pro to gain access to the past 30 days of data for over 8000 Wavebouys and Weather Stations around the globe.

Join Pro

Comparision Forecast

View Surf forecast
   
mar 01/17 10:30 17 23 mph 1021.3mb 39f 37f
10:24 13 21 mph 1021.4mb 39f 38f
10:18 14 21 mph 1021.3mb 39f 38f
10:12 16 22 mph 1021.2mb 39f 38f
10:06 14 20 mph 1021.3mb 39f 39f
10:00 16 21 mph 1021.2mb 39f 38f
9:54 14 20 mph 1021.3mb 39f 38f
9:48 14 18 mph 1021.3mb 39f 38f
9:42 16 21 mph 1021.4mb 39f 38f
9:36 15 20 mph 1021.5mb 39f 38f
9:30 15 20 mph 1021.7mb 39f 38f
9:24 14 18 mph 1021.8mb 39f 38f
9:18 14 18 mph 1022mb 39f 38f
9:12 13 17 mph 1022.2mb 39f 38f
9:06 13 17 mph 1022.2mb 39f 38f
9:00 11 16 mph 1022.2mb 39f 38f
8:54 16 20 mph 1022.1mb 39f 38f
8:48 14 18 mph 1022.1mb 39f 38f
8:42 16 21 mph 1022.1mb 39f 38f
8:36 16 20 mph 1022.1mb 39f 38f
8:30 14 16 mph 1022.2mb 39f 38f
8:24 14 16 mph 1022.3mb 39f 38f
8:18 11 15 mph 1022.4mb 39f 38f
8:12 13 17 mph 1022.6mb 39f 38f
8:06 10 15 mph 1022.8mb 39f 38f
8:00 11 15 mph 1022.9mb 39f 38f
7:48 10 14 mph 1022.9mb 39f 38f
7:42 10 14 mph 1022.9mb 39f 38f
7:36 11 15 mph 1022.9mb 39f 38f
7:30 11 14 mph 1022.9mb 39f 38f
7:24 11 15 mph 1023mb 39f 38f
7:18 10 14 mph 1023.1mb 39f 38f
7:12 11 15 mph 1023.2mb 39f 38f
7:06 10 13 mph 1023.3mb 39f 38f
7:00 9 14 mph 1023.3mb 40f 38f
6:54 10 14 mph 1023.2mb 40f 38f
6:48 11 14 mph 1023.2mb 40f 38f
6:42 11 14 mph 1023.2mb 40f 38f
6:36 10 14 mph 1023.2mb 40f 38f
6:30 10 15 mph 1023.2mb 40f 38f
6:24 11 14 mph 1023.2mb 40f 38f
6:18 11 14 mph 1023.2mb 40f 38f
6:12 13 14 mph 1023.3mb 40f 38f
6:06 10 13 mph 1023.3mb 40f 38f
6:00 10 14 mph 1023.3mb 40f 38f
5:54 11 15 mph 1023.3mb 40f 38f
5:48 10 14 mph 1023.3mb 40f 38f
5:42 10 14 mph 1023.3mb 40f 38f
5:36 10 14 mph 1023.2mb 40f 38f
5:30 11 14 mph 1023.2mb 40f 38f
5:24 10 13 mph 1023.2mb 40f 38f
5:18 9 14 mph 1023.3mb 40f 38f
5:12 11 14 mph 1023.3mb 40f 38f
5:06 10 14 mph 1023.3mb 40f 38f
5:00 11 13 mph 1023.4mb 40f 38f
4:54 10 13 mph 1023.4mb 40f 38f
4:48 10 14 mph 1023.4mb 40f 38f
4:42 10 13 mph 1023.4mb 40f 38f
4:36 9 13 mph 1023.4mb 40f 38f
4:30 7 13 mph 1023.3mb 40f 38f
4:24 7 10 mph 1023.4mb 40f 38f
4:18 8 10 mph 1023.4mb 40f 38f
4:12 7 9 mph 1023.4mb 40f 38f
4:06 7 9 mph 1023.5mb 40f 38f
4:00 8 10 mph 1023.6mb 40f 38f
3:54 8 10 mph 1023.5mb 40f 38f
3:48 9 11 mph 1023.5mb 40f 38f
3:42 7 11 mph 1023.5mb 40f 38f
3:36 7 10 mph 1023.5mb 40f 38f
3:30 8 11 mph 1023.4mb 40f 38f
3:24 9 11 mph 1023.4mb 40f 38f
3:18 9 11 mph 1023.4mb 40f 38f
3:12 8 11 mph 1023.4mb 40f 38f
3:06 9 11 mph 1023.5mb 40f 38f
3:00 8 10 mph 1023.5mb 40f 38f
2:54 9 11 mph 1023.5mb 40f 38f
2:48 9 10 mph 1023.3mb 40f 38f
2:42 9 13 mph 1023.3mb 40f 38f
2:36 9 13 mph 1023.3mb 40f 38f
2:30 9 11 mph 1023.2mb 40f 38f
2:24 10 14 mph 1023.3mb 40f 38f
2:18 10 11 mph 1023.3mb 40f 38f
2:12 9 10 mph 1023.3mb 40f 38f
2:06 9 13 mph 1023.4mb 40f 38f
2:00 11 13 mph 1023.4mb 40f 38f
1:54 9 11 mph 1023.4mb 40f 38f
1:48 10 11 mph 1023.3mb 40f 38f
1:42 8 11 mph 1023.3mb 40f 38f
1:36 8 11 mph 1023.3mb 40f 38f
1:30 9 11 mph 1023.4mb 40f 38f
1:24 9 13 mph 1023.4mb 40f 38f
1:18 10 13 mph 1023.3mb 40f 38f
1:12 9 13 mph 1023.3mb 40f 38f
1:06 11 14 mph 1023.3mb 40f 38f
1:00 11 14 mph 1023.3mb 40f 38f
12:54 11 15 mph 1023.3mb 40f 38f
12:48 13 15 mph 1023.3mb 40f 38f
12:42 13 16 mph 1023.4mb 40f 38f
12:36 13 16 mph 1023.5mb 39f 38f
12:30 10 14 mph 1023.6mb 39f 39f
12:24 11 15 mph 1023.7mb 39f 38f
12:18 11 14 mph 1023.8mb 40f 39f
12:12 10 15 mph 1023.9mb 39f 39f
12:06 10 13 mph 1023.9mb 39f 39f
12:00 13 15 mph 1024mb 39f 39f
11:54 11 14 mph 1024.1mb 39f 39f
11:48 9 14 mph 1024.1mb 39f 39f
11:42 10 14 mph 1024.2mb 38f 39f
11:36 7 11 mph 1024.2mb 38f 39f
11:30 8 13 mph 1024.3mb 38f 39f
11:24 9 13 mph 1024.3mb 38f 39f
11:18 10 14 mph 1024.3mb 38f 39f
11:12 13 14 mph 1024.3mb 37f 39f
11:06 13 16 mph 1024.2mb 37f 38f
11:00 9 11 mph 1024.3mb 37f 39f
10:54 10 11 mph 1024.4mb 37f 38f
10:48 7 13 mph 1024.6mb 37f 38f
10:42 8 13 mph 1024.6mb 37f 38f
10:36 6 9 mph 1024.6mb 37f 38f
10:30 7 10 mph 1024.7mb 37f 38f
10:24 7 9 mph 1024.7mb 37f 37f
10:18 8 10 mph 1024.7mb 37f 37f
10:12 7 10 mph 1024.8mb 37f 37f
10:06 7 9 mph 1024.9mb 37f 37f
10:00 6 9 mph 1024.9mb 37f 37f
9:54 6 8 mph 1024.9mb 37f 36f
9:48 6 8 mph 1024.9mb 37f 36f
9:42 6 8 mph 1024.9mb 37f 35f
9:36 6 8 mph 1024.9mb 37f 35f
9:30 6 8 mph 1024.8mb 37f 35f
9:24 6 8 mph 1024.7mb 37f 34f
9:18 7 8 mph 1024.8mb 38f 34f
9:12 8 9 mph 1024.8mb 38f 34f
9:06 8 9 mph 1024.9mb 38f 33f
9:00 7 8 mph 1024.8mb 38f 33f
8:54 5 6 mph 1024.8mb 38f 33f
8:48 3
mph
1024.8mb 38f 33f
8:42 3 5 mph 1024.7mb 38f 33f
8:36 3 5 mph 1024.6mb 38f 33f
8:30 1 2 mph 1024.5mb 38f 32f
8:24 1 2 mph 1024.5mb 38f 31f
8:18  -  2 mph 1024.4mb 38f 31f
8:12  -  2 mph 1024.3mb 38f 30f
8:06 2 3 mph 1024.2mb 38f 30f
8:00 3 5 mph 1024.1mb 38f 29f
7:54 5
mph
1024.1mb 38f 29f
7:48 5 7 mph 1024.1mb 38f 29f
7:42 6 7 mph 1024.1mb 38f 29f
7:36 6 7 mph 1023.9mb 38f 29f
7:30 6 7 mph 1023.8mb 38f 29f
7:24 7
mph
1023.7mb 38f 29f
7:18 3 5 mph 1023.5mb 38f 28f
7:12 3 6 mph 1023.3mb 38f 28f
7:06 5 6 mph 1023.3mb 38f 28f
7:00 6
mph
1023.2mb 38f 28f
6:54 5 6 mph 1023.2mb 38f 29f
6:48 3 5 mph 1023.1mb 38f 28f
6:42 2
mph
1023mb 38f 27f
6:36  -  2 mph 1022.9mb 39f 26f
6:30 2
mph
1022.7mb 39f 27f
6:24 2
mph
1022.7mb 39f 27f
6:18 2 3 mph 1022.7mb 39f 28f
6:12 2 5 mph 1022.6mb 39f 28f
6:06 3 5 mph 1022.6mb 39f 28f
6:00 3
mph
1022.6mb 39f 28f
5:54 1 3 mph 1022.6mb 39f 29f
5:48 2
mph
1022.6mb 39f 27f
5:42 2 3 mph 1022.5mb 39f 25f
5:36 3
mph
1022.4mb 39f 25f
5:30 2 3 mph 1022.4mb 39f 27f
5:24 3 5 mph 1022.2mb 39f 28f
5:18 3 5 mph 1022.2mb 39f 26f
5:12 5
mph
1022.1mb 39f 26f
5:06 3
mph
1022mb 39f 26f
5:00 3
mph
1022mb 39f 26f
4:54 2
mph
1021.8mb 39f 27f
4:48 2
mph
1021.8mb 39f 29f
4:42 1 2 mph 1021.7mb 39f 29f
4:36 2 3 mph 1021.8mb 39f 27f
4:30 2 3 mph 1021.9mb 39f 26f
4:24 2 3 mph 1021.9mb 39f 27f
4:18 2 3 mph 1021.9mb 39f 28f
4:12 2 3 mph 1021.9mb 39f 29f
4:06 2 3 mph 1022mb 39f 28f
4:00 1 2 mph 1021.9mb 39f 29f
3:54 2
mph
1021.9mb 39f 30f
3:48  -  2 mph 1021.7mb 39f 32f
3:42 2 3 mph 1021.8mb 39f 32f
3:36  -  3 mph 1021.8mb 39f 31f
3:30 1 6 mph 1021.6mb 39f 31f
3:24 5 6 mph 1021.6mb 39f 32f
3:18 3 7 mph 1021.6mb 39f 31f
3:12 5 7 mph 1021.6mb 39f 32f
3:06 5 6 mph 1021.6mb 39f 32f
3:00 6 9 mph 1021.7mb 39f 32f
2:54 6 9 mph 1021.6mb 39f 32f
2:48 6 7 mph 1021.6mb 39f 32f
2:42 6 7 mph 1021.6mb 39f 30f
2:36 6 8 mph 1021.5mb 39f 30f
2:30 6 7 mph 1021.5mb 39f 29f
2:24 6 7 mph 1021.6mb 39f 31f
2:18 5 6 mph 1021.5mb 39f 31f
2:12 2 6 mph 1021.4mb 39f 31f
2:06 2 5 mph 1021.2mb 39f 32f
2:00 3 6 mph 1021.2mb 40f 32f
1:54 3 5 mph 1021.1mb 40f 32f
1:48 2 5 mph 1021.2mb - -
1:42 5 7 mph 1021.2mb - -
1:36 3 5 mph 1021mb - -
1:30 5 6 mph 1020.9mb 40f 33f
1:24 5 7 mph 1020.8mb 40f 33f
1:18 5 7 mph 1020.9mb 40f 33f
1:12 3 6 mph 1020.8mb 40f 33f
1:06 5 6 mph 1020.7mb 39f 33f
1:00 6 9 mph 1020.7mb 39f 33f
12:54 5 7 mph 1020.5mb 39f 33f
12:48 5 10 mph - - -
12:42 7 9 mph - - -
12:36 6 9 mph - - -
12:30 6 9 mph 1020.6mb 39f 34f
12:24 7 10 mph 1020.6mb 39f 34f
12:18 5 10 mph 1020.6mb 39f 33f
12:12 7 14 mph 1020.6mb 39f 33f
12:06 8 11 mph 1020.5mb 39f 33f
12:00 8 10 mph 1020.5mb 39f 33f
lun 01/16 11:54 6 9 mph 1020.6mb 39f 33f
11:48 5 7 mph 1020.8mb 39f 33f
11:42 6 8 mph 1020.8mb 39f 33f
11:36 6 7 mph 1020.8mb 39f 33f
11:30 6 7 mph 1021mb 39f 32f
11:24 5 6 mph 1021mb 39f 32f
11:18 3 6 mph 1021.1mb 39f 32f
11:12 5 8 mph 1021.2mb 39f 31f
11:06 3 8 mph 1021.2mb 38f 32f
11:00 6 10 mph 1021.2mb 38f 32f
10:54 6 9 mph 1021.2mb 38f 32f
10:48 6 10 mph 1021.2mb 38f 32f
10:42 5 8 mph 1021.4mb 38f 32f
10:36 6 9 mph 1021.4mb 38f 32f
10:30 6 8 mph 1021.5mb 38f 32f
10:24 5 7 mph 1021.7mb 38f 33f
10:18 5 7 mph 1021.7mb 38f 33f
10:12 3 6 mph 1021.8mb 38f 33f
10:06 2 7 mph 1021.8mb 38f 33f
10:00 5 7 mph 1021.8mb 38f 33f
9:54 3 6 mph 1021.7mb 38f 33f
9:48 3 6 mph 1021.8mb 38f 33f
9:42 5 8 mph 1021.8mb 38f 33f
9:36 5 7 mph 1021.9mb 38f 33f
9:30 5 7 mph 1022mb 38f 33f
9:24 5 6 mph 1022mb 38f 34f
9:18 6 7 mph 1022mb 38f 34f
9:12 5 9 mph 1022mb 39f 34f
9:06 6 8 mph 1022mb 39f 34f
9:00 5 9 mph 1022.1mb 39f 34f
8:54 6 8 mph 1022.1mb 39f 34f
8:48 5 7 mph 1022.2mb 39f 33f
8:42 3 6 mph 1022.3mb 39f 34f
8:36 3 6 mph 1022.4mb 39f 34f
8:30 3 6 mph 1022.4mb 39f 34f
8:24 3 5 mph 1022.5mb 39f 34f
8:18 2 6 mph 1022.6mb 39f 34f
8:12 2 5 mph 1022.6mb 39f 34f
8:06 2 3 mph 1022.6mb 39f 34f
8:00 2 5 mph 1022.6mb 39f 34f
7:54 1 6 mph 1022.7mb 39f 34f
7:48 3 5 mph 1022.7mb 39f 34f
7:42 3 6 mph 1022.8mb 39f 34f
7:36 2 6 mph 1022.8mb 39f 34f
7:30 5 7 mph 1022.9mb 39f 34f
7:24 3 6 mph 1022.9mb 39f 35f
7:18 3 7 mph 1023mb 39f 35f
7:12 3 6 mph 1022.9mb 39f 35f
7:06 3 6 mph 1022.9mb 39f 35f
7:00 1 3 mph 1022.9mb 39f 35f
6:54 1 3 mph 1022.9mb 39f 35f
6:48 1 7 mph 1022.8mb 39f 35f
6:42 3 8 mph 1022.8mb 39f 35f
6:36 5 7 mph 1022.8mb 39f 35f
6:30 5 8 mph 1022.8mb 39f 36f
6:24 2 7 mph 1022.8mb 39f 35f
6:18 6 9 mph 1022.8mb 39f 36f
6:12 6 8 mph 1022.8mb 39f 35f
6:06 5 8 mph 1022.9mb 39f 36f
6:00 5 11 mph 1022.8mb 39f 36f
5:54 7 10 mph 1022.9mb 39f 36f
5:48 7 14 mph 1022.8mb 39f 36f
5:42 7 11 mph 1022.8mb 39f 36f
5:36 8 13 mph 1022.8mb 39f 36f
5:30 7 10 mph 1022.8mb 39f 36f
5:24 8 11 mph 1022.8mb 39f 35f
5:18 6 8 mph 1022.8mb 39f 35f
5:12 5 6 mph 1022.8mb 39f 35f
5:06 5 6 mph 1022.9mb 39f 35f
5:00 5 6 mph 1022.9mb 40f 35f
4:54 6 8 mph 1022.9mb 40f 36f
4:48 6 7 mph 1023mb 40f 36f
4:42 6 8 mph 1023.1mb 40f 36f
4:36 3 6 mph 1023.1mb 40f 35f
4:30 5 9 mph 1023.2mb 40f 36f
4:24 8 9 mph 1023.2mb 40f 36f
4:18 7 9 mph 1023.2mb 40f 36f
4:12 8
mph
1023.3mb 40f 36f
4:06 6 8 mph 1023.3mb 40f 37f
4:00 6 9 mph 1023.4mb 40f 37f
3:54 6 8 mph 1023.4mb 40f 37f
3:48 5 8 mph 1023.4mb 40f 37f
3:42 6 10 mph 1023.4mb 40f 38f
3:36 7 13 mph 1023.3mb 40f 38f
3:30 8 13 mph 1023.4mb 40f 38f
3:24 9 14 mph 1023.4mb 40f 38f
3:18 10 15 mph 1023.5mb 40f 38f
3:12 13 16 mph 1023.5mb 40f 38f
3:06 10 14 mph 1023.6mb 40f 38f
3:00 10 17 mph 1023.5mb 40f 38f
2:54 10 16 mph 1023.5mb 40f 38f
2:48 10 13 mph 1023.6mb 40f 38f
2:42 9 15 mph 1023.8mb 40f 38f
2:36 8 14 mph 1023.9mb 40f 38f
2:30 8 16 mph 1024mb 40f 38f
2:24 11 16 mph 1024mb 40f 38f
2:18 10 15 mph 1024mb 40f 38f
2:12 9 20 mph 1024mb 40f 38f
2:06 14 20 mph 1024.1mb 40f 37f
2:00 9 15 mph 1024.2mb 40f 38f
1:54 10 15 mph 1024.1mb 40f 38f
1:48 14 17 mph 1024.1mb 40f 37f
1:42 11 20 mph 1024.2mb 40f 37f
1:36 10 16 mph 1024.2mb 40f 37f
1:30 10 17 mph 1024.1mb 40f 37f
1:24 9 13 mph 1024.1mb 40f 37f
1:18 6 13 mph 1024.3mb 40f 37f
1:12 9 14 mph 1024.5mb 40f 37f
1:06 13 20 mph 1024.6mb 40f 36f
1:00 9 15 mph 1024.6mb 40f 37f
12:54 7 13 mph 1024.7mb 40f 37f
12:48 11 17 mph 1024.9mb 40f 36f
12:42 11 15 mph 1025mb 40f 35f
12:36 11 17 mph 1025mb 40f 35f
12:30 7 11 mph 1025.1mb 40f 36f
12:24 9 16 mph 1025.3mb 40f 35f
12:18 10 16 mph 1025.4mb 40f 35f
12:12 11 16 mph 1025.5mb 40f 34f
12:06 6 15 mph 1025.7mb 40f 35f
12:00 7 14 mph 1025.9mb 40f 35f
11:54 7 13 mph 1026mb 40f 34f
11:48 10 14 mph 1026.3mb 40f 34f
11:42 10 16 mph 1026.4mb 40f 34f
11:36 16 18 mph 1026.7mb 40f 33f
11:30 14 20 mph 1026.9mb 40f 33f
11:24 13 17 mph 1027.1mb 40f 33f
11:18 10 15 mph 1027.3mb 40f 33f
11:12 11 16 mph 1027.4mb 40f 32f
11:06 10 15 mph 1027.6mb 40f 33f
11:00 8 16 mph 1027.7mb 40f 32f
10:54 10 16 mph 1027.9mb 39f 32f
10:48 10 17 mph 1028.1mb 39f 32f
10:42 7 11 mph 1028.3mb 38f 31f
10:36 6 14 mph 1028.6mb 38f 31f
10:30 6 13 mph 1028.7mb 37f 30f
10:24 7 10 mph 1028.7mb 37f 29f
10:18 6 10 mph 1028.7mb 37f 29f
10:12 8 10 mph 1029mb 37f 29f
10:06 8 11 mph 1029mb 36f 28f
10:00 7 11 mph 1029.1mb 36f 28f
9:54 8 14 mph 1029.1mb 36f 27f
9:48 6 13 mph 1029.1mb 36f 27f
9:42 6 8 mph 1029.2mb 36f 27f
9:36 7 10 mph 1029.3mb 36f 26f
9:30 6 8 mph 1029.5mb 36f 26f
9:24 5 8 mph 1029.6mb 36f 25f
9:18 7 9 mph 1029.6mb 36f 25f
9:12 3 8 mph 1029.6mb 36f 25f
9:06 6 8 mph 1029.6mb 36f 24f
9:00 5 8 mph 1029.7mb 36f 23f
8:54 3 7 mph 1029.9mb 36f 23f
8:48 2 5 mph 1029.8mb 36f 22f
8:42 2 5 mph 1029.7mb 37f 22f
8:36 3 5 mph 1029.8mb 37f 21f
8:30 1 3 mph 1029.8mb 37f 21f
8:24 1 2 mph 1029.8mb 37f 20f
8:18 2
mph
1029.6mb 37f 20f
8:12  -  2 mph 1029.5mb 37f 20f
8:06 2 3 mph 1029.6mb 37f 19f
8:00 2 6 mph 1029.6mb 37f 18f
7:54 3 6 mph 1029.6mb 37f 18f
7:48 2 3 mph 1029.6mb 37f 18f
7:42 2 5 mph 1029.5mb 38f 18f
7:36 5 7 mph 1029.8mb 38f 17f
7:30 5 6 mph 1029.8mb 38f 17f
7:24 5 6 mph 1029.9mb 38f 17f
7:18 3 6 mph 1029.9mb 38f 17f
7:12 2 5 mph 1030mb 38f 17f
7:06 3 5 mph 1030.1mb 38f 17f
7:00 2 6 mph 1030.2mb 38f 16f
6:54 5 6 mph 1030.3mb 38f 16f
6:48 5 6 mph 1030.2mb 38f 16f
6:42 6
mph
1030.2mb 38f 16f
6:36 5 6 mph 1030mb 38f 17f
6:30 5 6 mph 1030mb 38f 17f
6:24 3 5 mph 1030mb 38f 16f
6:18 3 5 mph 1030.1mb 38f 16f
6:12 5 6 mph 1030mb 38f 16f
6:06 3 5 mph 1029.9mb 38f 16f
6:00 1 2 mph 1029.8mb 38f 16f
5:54  -  2 mph 1029.9mb 38f 17f
5:48 2 3 mph 1030mb 38f 17f
5:42 3
mph
1030mb 38f 17f
5:36 2 5 mph 1030.1mb 38f 17f
5:30 2 3 mph 1030.2mb 38f 17f
5:24 1
mph
1030.2mb 39f 17f
5:18  -  3 mph 1030.2mb 39f 17f
5:12 3 5 mph 1030.3mb 39f 17f
5:06 3 6 mph 1030.3mb 39f 17f
5:00 5 6 mph 1030.4mb 39f 17f
4:54 5 7 mph 1030.3mb 39f 17f
4:48 6 7 mph 1030.3mb 39f 17f
4:42 3 6 mph 1030.2mb 39f 17f
4:36 6
mph
1030.2mb 39f 17f
4:30 3 5 mph 1030.2mb 39f 17f
4:24 2 3 mph 1030.2mb 39f 17f
4:18 2 5 mph 1030.3mb 39f 17f
4:12 5
mph
1030.3mb 39f 17f
4:06 3 5 mph 1030.3mb 39f 17f
4:00 2 3 mph 1030.2mb 39f 17f
3:54 3 5 mph 1030.2mb 39f 17f
3:48 2 5 mph 1030.1mb 39f 18f
3:42 5 6 mph 1030.2mb 39f 18f
3:36 5 6 mph 1030.3mb 39f 18f
3:30 5
mph
1030.2mb 39f 18f
3:24 5 6 mph 1030.4mb 39f 19f
3:18 6 7 mph 1030.5mb 39f 19f
3:12 6 7 mph 1030.5mb 39f 19f
3:06 6 7 mph 1030.5mb 39f 19f
3:00 6
mph
1030.6mb 39f 19f
2:54 3 6 mph 1030.5mb 39f 20f
2:48 3 5 mph 1030.3mb 39f 20f
2:42 5 6 mph 1030.3mb 39f 20f
2:36 5 6 mph 1030.3mb 39f 20f
2:30 5 6 mph 1030.4mb 39f 20f
2:24 5 6 mph 1030.4mb 39f 20f
2:18 3 5 mph 1030.3mb 39f 20f
2:12 5
mph
1030.3mb 39f 20f
2:06 2 3 mph 1030.4mb 39f 20f
2:00 3 5 mph 1030.4mb 39f 20f
1:54 3
mph
1030.5mb 39f 20f
1:48 3 6 mph 1030.5mb - -
1:42 3 5 mph 1030.4mb - -
1:36 3 5 mph 1030.3mb - -
1:30 3 5 mph 1030.4mb 39f 20f
1:24 3 5 mph 1030.3mb 39f 20f
1:18 5
mph
1030.3mb 39f 20f
1:12 5 6 mph 1030.4mb 39f 20f
1:06 6 7 mph 1030.4mb 39f 19f
1:00 6
mph
1030.3mb 39f 20f
12:54 5
mph
1030.3mb 39f 20f
12:48 5 7 mph 1030.3mb 39f 20f
12:42 6 7 mph 1030.3mb 39f 20f
12:36 6 7 mph 1030.3mb 39f 19f
12:30 6 7 mph 1030.1mb 39f 20f
12:24 6 7 mph 1030.1mb 39f 20f
12:18 6
mph
1030.1mb 39f 20f
12:12 6
mph
1030.1mb 39f 20f
12:06 5 6 mph 1030.1mb 39f 20f
12:00 3 6 mph 1030.1mb 39f 20f
dom 01/15 11:54 5
mph
1030mb 39f 20f
11:48 5
mph
1029.8mb 39f 20f
11:42 3
mph
1029.9mb 40f 21f
11:36 2 3 mph 1029.9mb 40f 21f
11:30 2 3 mph 1029.9mb 40f 21f
11:24 3 5 mph 1029.8mb 40f 21f
11:18 5
mph
1029.7mb 40f 22f
11:12 3
mph
1029.7mb 40f 22f
11:06 3
mph
1029.7mb 40f 22f
11:00 3
mph
1029.7mb 40f 22f
10:54 2 3 mph 1029.6mb 40f 22f
10:48 2 3 mph 1029.6mb 40f 22f
10:42 3 5 mph 1029.6mb 40f 22f
10:36 3 5 mph 1029.6mb 39f 21f
10:30 5
mph
1029.6mb 39f 21f
10:24 5
mph
1029.6mb 39f 21f
10:18 3 5 mph 1029.7mb 39f 23f
10:12 3 5 mph 1029.7mb 39f 22f
10:06 5
mph
1029.6mb 38f 22f
10:00 3
mph
1029.6mb 38f 23f
9:54 3
mph
1029.6mb 38f 24f
9:48 2 3 mph 1029.7mb 38f 24f
9:42 2 3 mph 1029.6mb 38f 24f
9:36 3
mph
1029.6mb 38f 24f
9:30 3
mph
1029.5mb 38f 25f
9:24 1 3 mph 1029.6mb 38f 25f
9:18 1 3 mph 1029.6mb 38f 25f
9:12 2
mph
1029.5mb 38f 25f
9:06 1 3 mph 1029.4mb 38f 25f
9:00 2 3 mph 1029.3mb 38f 25f
8:54 3 5 mph 1029.2mb 38f 25f
8:48 3 5 mph 1029.2mb 38f 25f
8:42 5 6 mph 1029.1mb 38f 25f
8:36 5
mph
1029mb 38f 26f
8:30 3 5 mph 1029mb 38f 26f
8:24 3 5 mph 1028.9mb 38f 26f
8:18 5 7 mph 1029mb 39f 26f
8:12 7 8 mph 1028.9mb 39f 26f
8:06 6 7 mph 1028.8mb 39f 26f
8:00 5 6 mph 1028.9mb 39f 26f
7:54 6 7 mph 1028.8mb 39f 27f
7:48 6 7 mph 1028.8mb 39f 27f
7:42 3
mph
1028.9mb 39f 27f
7:36 2 7 mph 1028.9mb 39f 27f
7:30 7 9 mph 1028.5mb 39f 27f
7:24 8 10 mph 1028.4mb 39f 27f
7:18 6 8 mph 1028.5mb 39f 27f
7:12 5 8 mph 1028.6mb 39f 27f
7:06 7 11 mph 1028.4mb 39f 27f
7:00 10 13 mph 1028.2mb 39f 27f
6:54 9 10 mph 1028.3mb 39f 28f
6:48 6 9 mph 1028.4mb 39f 28f
6:42 9 14 mph 1028.3mb 39f 28f
6:36 11 13 mph 1028.1mb 39f 28f
6:30 9 10 mph 1028.2mb 39f 28f
6:24 7 11 mph 1028.3mb 39f 28f
6:18 8 11 mph 1028.1mb 39f 28f
6:12 11 15 mph 1027.9mb 39f 28f
6:06 13 15 mph 1027.9mb 39f 29f
6:00 9 13 mph 1028mb 39f 29f
5:54 8 13 mph 1027.9mb 39f 29f
5:48 9 13 mph 1027.8mb 39f 29f
5:42 10 15 mph 1027.7mb 39f 29f
5:36 10 15 mph 1027.7mb 39f 29f
5:30 9 14 mph 1027.6mb 39f 29f
5:24 9 15 mph 1027.5mb 39f 29f
5:18 8 11 mph 1027.5mb 39f 29f
5:12 6 13 mph 1027.5mb 39f 29f
5:06 7 14 mph 1027.4mb 39f 30f
5:00 9 16 mph 1027.2mb 40f 30f
4:54 8 13 mph 1027.2mb 40f 30f
4:48 11 14 mph 1027.2mb 40f 30f
4:42 9 15 mph 1027.1mb 40f 30f
4:36 9 15 mph 1026.9mb 40f 30f
4:30 10 14 mph 1026.8mb 40f 30f
4:24 7 13 mph 1026.7mb 40f 31f
4:18 9 14 mph 1026.7mb 40f 31f
4:12 8 14 mph 1026.6mb 40f 31f
4:06 9 15 mph 1026.5mb 40f 31f
4:00 10 15 mph 1026.3mb 40f 31f
3:54 7 16 mph 1026.2mb 40f 32f
3:48 11 15 mph 1026.1mb 40f 32f
3:42 10 17 mph 1026mb 40f 32f
3:36 10 14 mph 1026mb 40f 32f
3:30 7 11 mph 1026mb 40f 33f
3:24 8 11 mph 1025.9mb 40f 33f
3:18 8 14 mph 1025.8mb 40f 32f
3:12 9 15 mph 1025.6mb 40f 32f
3:06 9 15 mph 1025.4mb 40f 33f
3:00 8 14 mph 1025.3mb 40f 33f
2:54 9 13 mph 1025.2mb 40f 33f
2:48 8 10 mph 1025.2mb 40f 33f
2:42 6 10 mph 1025.2mb 40f 33f
2:36 7 11 mph 1025.1mb 40f 33f
2:30 6 11 mph 1025mb 40f 33f
2:24 8 13 mph 1024.9mb 40f 33f
2:18 6 13 mph - - -
2:12 8 15 mph 1024.7mb 40f 33f
2:06 8 14 mph 1024.6mb 40f 33f
2:00 9 14 mph 1024.5mb 40f 33f
1:54 10 17 mph 1024.5mb 40f 33f
1:48 9 13 mph 1024.6mb 40f 33f
1:42 8 14 mph 1024.7mb 40f 33f
1:36 11 14 mph 1024.6mb 40f 32f
1:30 9 13 mph 1024.6mb 40f 32f
1:24 3 10 mph 1024.5mb 40f 33f
1:18 7 11 mph 1024.5mb 40f 33f
1:12 8 14 mph 1024.4mb 40f 33f
1:06 9 16 mph 1024.4mb 40f 33f
1:00 10 13 mph 1024.4mb 40f 32f
12:54 8 15 mph 1024.4mb 40f 33f
12:48 7 10 mph 1024.5mb 40f 32f
12:42 7 14 mph 1024.5mb 40f 32f
12:36 7 17 mph 1024.5mb 40f 33f
12:30 14 17 mph 1024.5mb 40f 32f
12:24 9 13 mph 1024.5mb 40f 33f
12:18 8 14 mph 1024.5mb 40f 33f
12:12 10 15 mph 1024.5mb 40f 32f
12:06 8 14 mph 1024.5mb 40f 32f
12:00 9 14 mph 1024.5mb 40f 32f
11:54 8 14 mph 1024.6mb 40f 32f
11:48 9 13 mph 1024.6mb 40f 33f
11:42 6 10 mph 1024.6mb 40f 32f
11:36 8 9 mph 1024.7mb 40f 32f
11:30 3 8 mph 1024.8mb 40f 32f
11:24 6 9 mph 1024.9mb 40f 31f
11:18 9 16 mph 1024.9mb 40f 31f
11:12 7 13 mph 1025mb 40f 31f
11:06 7 13 mph 1025mb 40f 31f
11:00 6 14 mph 1025.1mb 40f 31f
10:54 8 13 mph 1025.1mb 40f 31f
10:48 8 13 mph 1025.2mb 40f 30f
10:42 6 9 mph 1025.2mb 40f 30f
10:36 6 11 mph 1025.2mb 40f 30f
10:30 7 10 mph 1025.1mb 40f 30f
10:24 6 13 mph 1025.1mb 40f 30f
10:18 10 14 mph 1025.1mb 40f 29f
10:12 6 11 mph 1025.2mb 40f 29f
10:06 10 14 mph 1025.2mb 40f 29f
10:00 8 11 mph 1025.3mb 40f 29f
9:54 8 14 mph 1025.3mb 40f 29f
9:48 7 11 mph 1025.3mb 39f 29f
9:42 8 11 mph 1025.3mb 38f 28f
9:36 8 13 mph 1025.2mb 38f 28f
9:30 8 13 mph 1025.2mb 38f 28f
9:24 10 14 mph 1025.1mb 38f 27f
9:18 8 11 mph 1025.1mb 38f 27f
9:12 8 14 mph 1025.1mb 37f 26f
9:06 8 14 mph 1025mb 37f 26f
9:00 8 14 mph 1025mb 36f 26f
8:54 9 14 mph 1024.9mb 36f 25f
8:48 7 13 mph 1024.8mb 36f 25f
8:42 8 14 mph 1024.7mb 36f 25f
8:36 9 14 mph 1024.6mb 36f 25f
8:30 9 15 mph 1024.5mb 36f 24f
8:24 9 14 mph 1024.4mb 36f 24f
8:18 9 14 mph 1024.3mb 36f 24f
8:12 10 14 mph 1024.2mb 36f 24f
8:06 8 13 mph 1024.1mb 36f 24f
8:00 9 13 mph 1024mb 36f 23f
7:54 9 13 mph 1023.9mb 36f 23f
7:48 7 11 mph 1023.8mb 36f 23f
7:42 7 13 mph 1023.7mb 37f 23f
7:36 8 10 mph 1023.6mb 37f 23f
7:30 7 11 mph 1023.5mb 37f 23f
7:24 8 10 mph 1023.4mb 37f 23f
7:18 7 9 mph 1023.3mb 37f 23f
7:12 7 10 mph 1023.3mb 37f 23f
7:06 6 9 mph 1023.2mb 37f 23f
7:00 7 9 mph 1023.3mb 38f 23f
6:54 6 9 mph 1023.2mb 38f 23f
6:48 6 10 mph 1023.2mb 38f 23f
6:42 7 11 mph 1023.1mb 38f 23f
6:36 7 10 mph 1023mb 38f 23f
6:30 7 11 mph 1022.9mb 38f 23f
6:24 6 11 mph 1022.8mb 38f 23f
6:18 7 11 mph 1022.7mb 38f 23f
6:12 7 13 mph 1022.7mb 38f 23f
6:06 9 13 mph 1022.7mb 38f 23f
6:00 7 11 mph 1022.7mb 38f 23f
5:54 7 10 mph 1022.7mb 38f 22f
5:48 6 9 mph 1022.6mb 38f 22f
5:42 7 10 mph 1022.6mb 38f 22f
5:36 6 10 mph 1022.5mb 38f 22f
5:30 7 13 mph 1022.5mb 38f 22f
5:24 8 13 mph 1022.4mb 38f 22f
5:18 7 11 mph 1022.4mb 38f 22f
5:12 7 11 mph 1022.4mb 38f 22f
5:06 7 10 mph 1022.4mb 38f 22f
5:00 7 10 mph 1022.5mb 38f 22f
4:54 6 10 mph 1022.6mb 38f 22f
4:48 6 9 mph 1022.5mb 38f 21f
4:42 6 9 mph 1022.5mb 38f 21f
4:36 6 9 mph 1022.5mb 39f 21f
4:30 5 8 mph 1022.5mb 39f 21f
4:24 6 9 mph 1022.5mb 39f 21f
4:18 7 9 mph 1022.5mb 39f 21f
4:12 6 9 mph 1022.5mb 39f 21f
4:06 5 8 mph 1022.5mb 39f 21f
4:00 6 8 mph 1022.6mb 39f 21f
3:54 6 8 mph 1022.6mb 39f 21f
3:48 5 9 mph 1022.6mb 39f 22f
3:42 6 8 mph 1022.6mb 39f 22f
3:36 7 9 mph 1022.6mb 40f 22f
3:30 5 9 mph 1022.6mb 40f 22f
3:24 6 8 mph 1022.6mb 40f 22f
3:18 6 8 mph 1022.6mb 40f 22f
3:12 6 8 mph 1022.5mb 40f 22f
3:06 7 8 mph 1022.6mb 40f 22f
3:00 6 9 mph 1022.7mb 40f 22f
2:54 6 8 mph 1022.7mb 39f 22f
2:48 6 8 mph 1022.7mb 39f 22f
2:42 6 8 mph 1022.8mb 39f 22f
2:36 5 8 mph 1022.8mb 39f 22f
2:30 6 7 mph 1022.9mb 39f 22f
2:24 6 8 mph 1023mb 39f 22f
2:18 6 9 mph 1023.1mb 40f 23f
2:12 6 8 mph 1023.1mb 39f 23f
2:06 6 9 mph 1023.1mb 40f 23f
2:00 5 8 mph 1023.1mb 40f 23f
1:54 5 7 mph 1023.1mb 40f 23f
1:48 5 6 mph 1023.2mb 40f -
1:42 3 6 mph 1023.2mb 40f -
1:36 5 7 mph 1023.2mb 40f -
1:30 5 8 mph 1023.2mb 40f 24f
1:24 5 8 mph 1023.2mb 40f 24f
1:18 3 6 mph 1023.2mb 40f 24f
1:12 5 6 mph 1023.2mb 40f 24f
1:06 5 6 mph 1023.3mb 40f 24f
1:00 3 7 mph 1023.4mb 40f 24f
12:54 3 6 mph 1023.4mb 40f 24f
12:48 2 5 mph 1023.5mb - -
12:42 3 5 mph 1023.5mb - -
12:36 3 5 mph 1023.6mb - -
12:30 3 6 mph 1023.7mb 40f 24f
12:24 3 6 mph 1023.7mb 40f 24f
12:18 3 6 mph 1023.7mb 40f 24f
12:12 3 6 mph 1023.8mb 40f 24f
12:06 3 6 mph 1023.9mb 40f 24f
12:00 3 5 mph 1023.9mb 40f 24f
sáb 01/14 11:54 3 5 mph 1024mb 40f 24f
11:48 2 5 mph 1024.1mb 40f 24f
11:42 3 6 mph 1024.2mb 40f 24f
11:36 3 6 mph 1024.4mb 40f 24f
11:30 5 6 mph 1024.5mb 40f 25f
11:24 5 7 mph 1024.7mb 40f 25f
11:18 5 6 mph 1024.7mb 40f 25f
11:12 3 6 mph 1024.7mb 40f 25f
11:06 3 5 mph 1025mb 40f 25f
11:00 2 3 mph 1025.1mb 40f 25f
10:54 2 3 mph 1025.2mb 40f 25f
10:48 2 3 mph 1025.3mb 40f 25f
10:42  -  3 mph 1025.2mb 40f 25f
10:36 2
mph
1025.4mb 40f 25f
10:30 2 3 mph 1025.3mb 40f 25f
10:24 2 5 mph 1025.4mb 40f 25f
10:18 3 6 mph 1025.5mb 40f 25f
10:12 3 6 mph 1025.7mb 39f 24f
10:06 3 6 mph 1025.9mb 39f 24f
10:00 3 5 mph 1026.1mb 39f 24f
9:54 3
mph
1026.2mb 39f 24f
9:48 3 5 mph 1026.2mb 38f 24f
9:42 3 5 mph 1026.2mb 38f 24f
9:36 3 6 mph 1026.2mb 38f 25f
9:30 5 6 mph 1026.3mb 38f 25f
9:24 5 8 mph 1026.4mb 38f 25f
9:18 5 8 mph 1026.5mb 38f 25f
9:12 3 7 mph 1026.6mb 37f 25f
9:06 6 7 mph 1026.5mb 37f 25f
9:00 6 7 mph 1026.6mb 37f 25f
8:54 5 7 mph 1026.7mb 37f 25f
8:48 5 7 mph 1026.8mb 37f 25f
8:42 5 7 mph 1026.8mb 37f 25f
8:36 5 7 mph 1026.8mb 37f 25f
8:30 6 8 mph 1026.9mb 37f 25f
8:24 7 8 mph 1026.9mb 37f 24f
8:18 6 7 mph 1027mb 37f 25f
8:12 6 7 mph 1027.2mb 37f 25f
8:06 6 7 mph 1027.3mb 37f 25f
8:00 6 7 mph 1027.4mb 37f 25f
7:54 5 9 mph 1027.5mb 37f 25f
7:48 6 8 mph 1027.5mb 37f 25f
7:42 6 9 mph 1027.6mb 37f 25f
7:36 3 6 mph 1027.7mb 37f 25f
7:30 6 7 mph 1027.8mb 38f 25f
7:24 5 6 mph 1027.8mb 38f 25f
7:18 5 6 mph 1027.9mb 38f 25f
7:12 3 6 mph 1027.9mb 38f 25f
7:06 3 5 mph 1027.9mb 38f 24f
7:00 3 6 mph 1027.9mb 38f 24f
6:54 3 5 mph 1028.1mb 38f 24f
6:48 2 3 mph 1028.3mb 38f 24f
6:42 3 5 mph 1028.4mb 38f 24f
6:36 3 5 mph 1028.6mb 38f 24f
6:30 2 3 mph 1028.8mb 38f 24f
6:24 2
mph
1029mb 38f 24f
6:18 1 2 mph 1029.3mb 38f 24f
6:12 1 3 mph 1029.6mb 38f 24f
6:06 3
mph
1029.7mb 38f 24f
6:00 1 3 mph 1029.8mb 38f 24f
5:54 3 6 mph 1029.9mb 38f 24f
5:48 5 6 mph 1029.8mb 38f 24f
5:42 3 5 mph 1029.8mb 38f 24f
5:36 3 6 mph 1030mb 38f 24f
5:30 5 6 mph 1030mb 38f 24f
5:24 5 6 mph 1030mb 38f 24f
5:18 6 7 mph 1030.2mb 38f 24f
5:12 6 7 mph 1030.4mb 38f 24f
5:06 7 8 mph 1030.6mb 39f 24f
5:00 8 9 mph 1030.7mb 39f 25f
4:54 9 10 mph 1030.8mb 39f 25f
4:48 8 9 mph 1030.7mb 39f 25f
4:42 8 10 mph 1030.8mb 39f 26f
4:36 9 11 mph 1031mb 39f 26f
4:30 8 9 mph 1031.2mb 39f 26f
4:24 8 9 mph 1031.2mb 39f 26f
4:18 7 8 mph 1031.1mb 39f 26f
4:12 6 8 mph 1031.2mb 39f 26f
4:06 7 8 mph 1031.3mb 39f 26f
4:00 6 9 mph 1031.4mb 39f 27f
3:54 6 8 mph 1031.6mb 39f 27f
3:48 6 8 mph 1031.6mb 39f 27f
3:42 6 8 mph 1031.5mb 39f 27f
3:36 7 9 mph 1031.6mb 39f 27f
3:30 3 7 mph 1031.6mb 39f 26f
3:24 5 8 mph 1031.7mb 39f 28f
3:18 5 10 mph 1031.7mb 39f 26f
3:12 9 11 mph 1031.7mb 39f 27f
3:06 3 6 mph 1031.9mb 39f 28f
3:00 3 7 mph 1032.1mb 39f 27f
2:54 5 7 mph 1032.3mb 39f 27f
2:48 5 8 mph 1032.4mb 39f 26f
2:42 6 8 mph 1032.6mb 40f 26f
2:36 5 7 mph 1032.7mb 40f 27f
2:30 7 9 mph 1032.8mb 40f 26f
2:24 7 9 mph 1032.9mb 40f 25f
2:18 6 8 mph 1033.1mb 40f 25f
2:12 7 9 mph 1033.3mb 40f 25f
2:06 7 10 mph 1033.5mb 40f 25f
2:00 8 9 mph 1033.6mb 40f 26f
1:54 6 8 mph 1033.5mb 40f 26f
1:48 6 10 mph 1033.5mb 40f 26f
1:42 2 5 mph 1033.5mb 40f 26f
1:36 2 7 mph 1033.5mb 40f 26f
1:30 5 7 mph 1033.6mb 40f 25f
1:24 6 9 mph 1033.7mb 40f 25f
1:18 3 8 mph 1033.8mb 40f 24f
1:12 3 6 mph 1034mb 40f 24f
1:06 6 8 mph 1034mb 40f 23f
1:00 5 7 mph 1034mb 40f 23f
12:54 3 5 mph 1034.3mb 40f 23f
12:48  -  6 mph 1034.4mb 40f 24f
12:42 6 8 mph 1034.5mb 40f 23f
12:36 3 7 mph 1034.6mb 40f 23f
12:30 2 6 mph 1034.7mb 40f 22f
12:24 3 7 mph 1034.8mb 40f 22f
12:18 6 8 mph 1035mb 40f 22f
12:12 6 10 mph 1035.3mb 40f 22f
12:06 3 9 mph 1035.5mb 40f 22f
12:00 6 9 mph 1035.5mb 40f 22f
11:54 3 13 mph 1036mb 40f 22f
11:48 3 9 mph 1036.4mb 40f 21f
11:42 5 10 mph 1036.5mb 40f 21f
11:36 2 11 mph 1036.5mb 40f 21f
11:30 2 8 mph 1036.7mb 40f 20f
11:24 7 10 mph 1037.1mb 40f 20f
11:18 3 8 mph 1037.3mb 40f 21f
11:12 5 7 mph 1037.4mb 40f 20f
11:06 3 8 mph 1037.7mb 40f 19f
11:00 5 7 mph 1037.9mb 40f 20f
10:54 6 8 mph 1038.3mb 40f 19f
10:48 2 7 mph 1038.3mb 40f 19f
10:42 5 7 mph 1038.5mb 40f 19f
10:36 3 6 mph 1038.6mb 40f 19f
10:30 3 6 mph 1038.6mb 40f 19f
10:24 3 6 mph 1038.5mb 40f 18f
10:18 3 5 mph 1038.9mb 40f 19f
10:12 2 6 mph 1039.1mb 40f 19f
10:06 3 6 mph 1039.2mb 40f 18f
10:00 2 6 mph 1039.3mb 40f 18f
9:54 3 6 mph 1039.3mb 40f 18f
9:48 2 5 mph 1039.1mb 39f 18f
9:42 1 5 mph 1039.5mb 39f 17f
9:36 1 6 mph 1039.5mb 39f 17f
9:30 2 6 mph 1039.4mb 39f 17f
9:24 5 7 mph 1039.5mb 39f 17f
9:18 3 6 mph 1039.9mb 39f 17f
9:12 1 3 mph 1039.8mb 39f 18f
9:06  -  3 mph 1039.7mb 39f 17f
9:00 1 3 mph 1039.9mb 38f 16f
8:54  -  3 mph 1039.7mb 38f 15f
8:48 2
mph
1039.9mb 38f 15f
8:42 1 3 mph 1039.8mb 38f 14f
8:36 2 3 mph 1039.8mb 38f 14f
8:30 2 5 mph 1039.9mb 37f 14f
8:24 2 3 mph 1039.8mb 37f 13f
8:18 3 5 mph 1040mb 37f 14f
8:12 2 3 mph 1039.9mb 36f 14f
8:06  -  5 mph 1039.8mb 36f 14f
8:00 2 5 mph 1039.7mb 36f 14f
7:54  -  1 mph 1040mb 36f 15f
7:48  -  3 mph 1039.9mb 36f 14f
7:42 3 5 mph 1039.7mb 36f 13f
7:36 2
mph
1039.8mb 36f 13f
7:30 2 3 mph 1039.9mb 36f 13f
7:24 2 3 mph 1039.7mb 36f 13f
7:18 3 5 mph 1039.6mb 36f 13f
7:12 1 5 mph 1039.7mb 36f 13f
7:06 3 5 mph 1039.5mb 37f 13f
7:00 2 5 mph 1039.6mb 37f 13f
6:54 5 6 mph 1039.6mb 37f 13f
6:48 5 6 mph 1039.5mb 38f 13f
6:42 3 5 mph 1039.5mb 38f 13f
6:36 3 5 mph 1039.6mb 38f 13f
6:30 2 5 mph 1039.7mb 38f 13f
6:24 5 6 mph 1039.6mb 38f 13f
6:18 3 5 mph 1039.6mb 38f 13f
6:12 2 3 mph 1039.7mb 38f 13f
6:06 1 5 mph 1039.6mb 38f 14f
6:00 3 5 mph 1039.6mb 38f 14f
5:54 2 3 mph 1039.7mb 38f 14f
5:48 3 5 mph 1039.7mb 39f 14f
5:42 5 7 mph 1039.6mb 39f 14f
5:36 6 7 mph 1039.7mb 39f 15f
5:30 6 8 mph 1039.6mb 39f 14f
5:24 7 9 mph 1039.5mb 39f 15f
5:18 6 7 mph 1039.6mb 39f 15f
5:12 7 8 mph 1039.5mb 39f 15f
5:06 6 8 mph 1039.5mb 39f 15f
5:00 6 8 mph 1039.7mb 39f 15f
4:54 7 8 mph 1039.6mb 39f 15f
4:48 6 8 mph 1039.7mb 39f 15f
4:42 7 9 mph 1039.6mb 39f 15f
4:36 6 7 mph 1039.6mb 39f 15f
4:30 6 7 mph 1039.6mb 39f 15f
4:24 5 6 mph 1039.6mb 39f 16f
4:18 5 8 mph 1039.7mb 39f 16f
4:12 6 7 mph 1039.7mb 39f 16f